windsock image

Welcome to Bigfield Strip.

anemometer image
     

 Help for dials.  
 
Local Met:

Wind:   
10 Min average:  
281 ° / 0.9 kts (1.7)
89° / 1.2

Temperature:  
17.3°C C
Dew Point:  
15.7°C C
QNH:  
Trend:  
1011.6 mb mb
-0.3mb/hr
BigField Strip. This image updates approximately every minute, it can have a two minute delay.  
 

Humidity:  
90 %
Sunrise:   05:08z
Sunset:   19:00z
Updated:  
  UTC
 
   More met info, trends, radar, history etc. available here   

LUTON Metar   EGGW 271820Z AUTO 07006KT 9999 OVC025 21/16 Q1012
 
  TAF   2016/08/27 18:15 TAF TAF EGGW 271658Z 2718/2818 15005KT 9999 SCT025 PROB30 TEMPO 2718/2801 6000 SHRA BKN008 BECMG 2723/2802 22010KT PROB40 2801/2809 3000 BR BKN005 PROB30 2809/2812 7000 BKN010 PROB30 TEMPO 2812/2818 7000 SHRA BKN014
 
BENSON Metar   EGUB 271750Z AUTO 01007KT 9999 // BKN027/// 19/16 Q1012
 
  TAF   2016/08/27 15:09 TAF TAF EGUB 271554Z 2715/2718 CNL
 
Big Field view 1 icon   Big Field view 2 icon   Big Field view 3 icon   Chart AL3a in PDF icon   Chart AL3a in Word icon

WARNING:
This information is provided by the Airstrip unofficial weather station, DO NOT depend on the data provided here for any purpose.
This page is updated for latest Metars & TAF's every 5 minutes. Refresh the browser to check for the lastest.
Page designed for a minimum browser size of 1024x768.
© Copyright 2016 BigField Strip. This page auto generated 18:36 UTC - 27/08/2016   Contact Us
Valid HTML 4.01 Transitional     Windows uptime: 5 Days 16 Hours 4 Minutes 11 Seconds    WD started: 02:37 22/08/16    Free memory: 1370MB     Valid CSS!